createdAt,value
2022-09-11T00:00:41.851Z,17.50
2022-09-11T00:03:45.960Z,17.50
2022-09-11T00:06:48.651Z,17.53
2022-09-11T00:09:52.450Z,17.55
2022-09-11T00:12:55.595Z,17.49
2022-09-11T00:15:58.706Z,17.46
2022-09-11T00:19:03.104Z,17.48
2022-09-11T00:22:05.865Z,17.41
2022-09-11T00:25:10.254Z,17.39
2022-09-11T00:28:15.932Z,17.32
2022-09-11T00:31:20.804Z,17.29
2022-09-11T00:34:23.292Z,17.25
2022-09-11T00:37:25.879Z,17.26
2022-09-11T00:40:29.691Z,17.30
2022-09-11T00:43:52.360Z,17.21
2022-09-11T00:46:56.844Z,17.27
2022-09-11T00:50:08.801Z,17.40
2022-09-11T00:53:15.993Z,17.40
2022-09-11T00:56:20.443Z,17.39
2022-09-11T00:59:26.931Z,17.44
2022-09-11T01:02:32.407Z,17.38
2022-09-11T01:05:38.056Z,17.46
2022-09-11T01:08:40.633Z,17.12
2022-09-11T01:11:55.429Z,17.30
2022-09-11T01:15:03.550Z,17.32
2022-09-11T01:18:15.132Z,17.37
2022-09-11T01:21:37.045Z,17.40
2022-09-11T01:24:56.353Z,17.42
2022-09-11T01:28:03.026Z,17.29
2022-09-11T01:31:09.636Z,17.43
2022-09-11T01:34:21.655Z,17.46
2022-09-11T01:37:29.079Z,17.47
2022-09-11T01:40:38.670Z,17.48
2022-09-11T01:43:47.877Z,17.46
2022-09-11T01:46:53.118Z,17.44
2022-09-11T01:50:03.007Z,17.41
2022-09-11T01:53:09.637Z,17.45
2022-09-11T01:56:21.131Z,17.30
2022-09-11T01:59:30.813Z,17.19
2022-09-11T02:02:36.986Z,17.29
2022-09-11T02:05:45.742Z,17.10
2022-09-11T02:08:51.881Z,17.15
2022-09-11T02:11:56.627Z,17.17
2022-09-11T02:15:00.618Z,17.27
2022-09-11T02:18:10.277Z,17.20
2022-09-11T02:21:12.802Z,17.27
2022-09-11T02:24:16.564Z,17.22
2022-09-11T02:27:23.926Z,17.10
2022-09-11T02:30:27.823Z,17.16
2022-09-11T02:33:33.306Z,17.18
2022-09-11T02:37:04.878Z,17.14
2022-09-11T02:40:30.169Z,17.23
2022-09-11T02:43:47.824Z,17.23
2022-09-11T02:47:05.525Z,17.10
2022-09-11T02:50:15.214Z,17.02
2022-09-11T02:53:30.029Z,16.90
2022-09-11T02:56:39.996Z,16.97
2022-09-11T02:59:51.050Z,16.89
2022-09-11T03:02:54.868Z,17.02
2022-09-11T03:05:57.516Z,16.99
2022-09-11T03:09:00.015Z,16.94
2022-09-11T03:12:03.419Z,16.84
2022-09-11T03:15:07.118Z,16.82
2022-09-11T03:18:11.539Z,16.67
2022-09-11T03:21:14.012Z,16.78
2022-09-11T03:24:17.038Z,16.69
2022-09-11T03:27:19.575Z,16.94
2022-09-11T03:30:22.448Z,17.00
2022-09-11T03:33:26.570Z,17.05
2022-09-11T03:36:29.205Z,17.08
2022-09-11T03:39:31.721Z,16.97
2022-09-11T03:42:34.282Z,17.03
2022-09-11T03:45:36.844Z,16.76
2022-09-11T03:48:40.748Z,16.84
2022-09-11T03:51:43.276Z,16.91
2022-09-11T03:54:47.583Z,16.83
2022-09-11T03:57:50.136Z,16.94
2022-09-11T04:00:52.869Z,16.97
2022-09-11T04:03:57.068Z,17.00
2022-09-11T04:07:00.024Z,17.01
2022-09-11T04:10:02.532Z,16.90
2022-09-11T04:13:05.136Z,16.96
2022-09-11T04:16:09.612Z,16.99
2022-09-11T04:19:14.600Z,16.90
2022-09-11T04:22:17.116Z,16.86
2022-09-11T04:25:19.595Z,16.88
2022-09-11T04:28:22.403Z,16.90
2022-09-11T04:31:26.213Z,16.96
2022-09-11T04:34:30.220Z,16.65
2022-09-11T04:37:35.252Z,16.78
2022-09-11T04:40:37.791Z,16.70
2022-09-11T04:43:41.497Z,16.77
2022-09-11T04:46:45.232Z,16.47
2022-09-11T04:49:49.653Z,16.61
2022-09-11T04:52:52.112Z,16.45
2022-09-11T04:56:02.780Z,16.37
2022-09-11T04:59:13.321Z,16.57
2022-09-11T05:02:16.362Z,16.56
2022-09-11T05:05:20.447Z,16.24
2022-09-11T05:08:26.078Z,16.60
2022-09-11T05:11:30.066Z,16.67
2022-09-11T05:14:32.950Z,16.67
2022-09-11T05:17:35.426Z,16.78
2022-09-11T05:20:39.940Z,16.73
2022-09-11T05:23:43.596Z,16.73
2022-09-11T05:26:46.195Z,16.61
2022-09-11T05:29:48.661Z,16.67
2022-09-11T05:32:54.981Z,16.50
2022-09-11T05:36:05.085Z,16.58
2022-09-11T05:39:07.576Z,16.65
2022-09-11T05:42:10.041Z,16.75
2022-09-11T05:45:12.759Z,16.75
2022-09-11T05:48:16.435Z,16.67
2022-09-11T05:51:22.167Z,16.63
2022-09-11T05:54:24.646Z,16.60
2022-09-11T05:57:27.136Z,16.60
2022-09-11T06:00:30.389Z,16.64
2022-09-11T06:03:33.249Z,16.67
2022-09-11T06:06:37.141Z,16.72
2022-09-11T06:09:39.642Z,16.78
2022-09-11T06:12:42.215Z,16.77
2022-09-11T06:15:47.288Z,16.80
2022-09-11T06:18:51.348Z,16.87
2022-09-11T06:21:56.340Z,16.96
2022-09-11T06:24:58.827Z,16.99
2022-09-11T06:28:01.351Z,17.05
2022-09-11T06:31:05.403Z,17.14
2022-09-11T06:34:08.171Z,17.18
2022-09-11T06:37:11.977Z,17.16
2022-09-11T06:40:14.546Z,17.20
2022-09-11T06:43:17.050Z,17.27
2022-09-11T06:46:21.653Z,17.31
2022-09-11T06:49:24.411Z,17.31
2022-09-11T06:52:28.862Z,17.39
2022-09-11T06:55:31.496Z,17.42
2022-09-11T06:58:34.652Z,17.47
2022-09-11T07:01:37.428Z,17.61
2022-09-11T07:04:40.037Z,17.63
2022-09-11T07:07:44.030Z,17.63
2022-09-11T07:10:46.558Z,17.62
2022-09-11T07:13:49.202Z,17.49
2022-09-11T07:16:55.759Z,17.69
2022-09-11T07:19:58.287Z,17.77
2022-09-11T07:23:02.132Z,17.90
2022-09-11T07:26:05.980Z,17.85
2022-09-11T07:29:08.485Z,17.93
2022-09-11T07:32:11.094Z,17.59
2022-09-11T07:35:21.520Z,17.62
2022-09-11T07:38:25.384Z,17.58
2022-09-11T07:41:29.281Z,17.66
2022-09-11T07:44:31.786Z,17.73
2022-09-11T07:47:34.634Z,17.74
2022-09-11T07:50:37.127Z,17.82
2022-09-11T07:53:42.859Z,18.04
2022-09-11T07:56:45.539Z,17.92
2022-09-11T07:59:48.055Z,18.10
2022-09-11T08:02:50.569Z,18.37
2022-09-11T08:05:58.774Z,18.23
2022-09-11T08:09:05.582Z,18.26
2022-09-11T08:12:08.373Z,18.23
2022-09-11T08:15:11.014Z,18.00
2022-09-11T08:18:13.514Z,18.24
2022-09-11T08:21:16.518Z,18.33
2022-09-11T08:24:21.400Z,18.30
2022-09-11T08:27:24.062Z,18.22
2022-09-11T08:30:26.756Z,18.19
2022-09-11T08:33:29.377Z,18.39
2022-09-11T08:36:32.926Z,18.45
2022-09-11T08:39:36.792Z,18.30
2022-09-11T08:42:42.261Z,18.37
2022-09-11T08:45:45.056Z,18.57
2022-09-11T08:48:54.410Z,18.56
2022-09-11T08:52:01.937Z,18.32
2022-09-11T08:55:06.797Z,18.43
2022-09-11T08:58:17.689Z,19.04
2022-09-11T09:01:27.082Z,19.37
2022-09-11T09:05:00.735Z,20.11
2022-09-11T09:08:18.999Z,20.40
2022-09-11T09:11:33.568Z,19.91
2022-09-11T09:14:58.012Z,20.29
2022-09-11T09:18:06.219Z,20.77
2022-09-11T09:21:13.861Z,20.77
2022-09-11T09:24:20.429Z,19.99
2022-09-11T09:27:29.843Z,19.76
2022-09-11T09:30:42.298Z,19.51
2022-09-11T09:33:49.939Z,19.53
2022-09-11T09:37:00.058Z,19.58
2022-09-11T09:40:06.253Z,19.33
2022-09-11T09:43:29.846Z,19.38
2022-09-11T09:46:41.575Z,19.98
2022-09-11T09:49:45.818Z,20.77
2022-09-11T09:52:50.637Z,21.55
2022-09-11T09:55:55.319Z,22.45
2022-09-11T09:59:03.046Z,23.57
2022-09-11T10:02:05.655Z,23.94
2022-09-11T10:05:18.158Z,23.58
2022-09-11T10:08:34.323Z,22.07
2022-09-11T10:11:36.897Z,21.07
2022-09-11T10:14:51.495Z,21.49
2022-09-11T10:18:19.948Z,22.94
2022-09-11T10:21:25.836Z,23.00
2022-09-11T10:24:31.233Z,23.41
2022-09-11T10:27:39.887Z,22.35
2022-09-11T10:30:57.874Z,21.36
2022-09-11T10:34:01.944Z,21.14
2022-09-11T10:37:10.017Z,20.83
2022-09-11T10:40:27.371Z,21.83
2022-09-11T10:43:36.413Z,22.87
2022-09-11T10:46:41.551Z,22.27
2022-09-11T10:49:44.422Z,22.07
2022-09-11T10:53:03.759Z,23.10
2022-09-11T10:56:08.303Z,23.91
2022-09-11T10:59:18.314Z,24.72
2022-09-11T11:02:34.014Z,25.27
2022-09-11T11:05:47.832Z,25.67
2022-09-11T11:09:14.572Z,26.22
2022-09-11T11:12:32.649Z,26.56
2022-09-11T11:15:46.985Z,25.36
2022-09-11T11:19:06.654Z,23.86
2022-09-11T11:22:22.367Z,24.90
2022-09-11T11:25:34.922Z,25.54
2022-09-11T11:29:04.957Z,25.71
2022-09-11T11:35:31.954Z,25.43
2022-09-11T11:38:42.264Z,24.67
2022-09-11T11:41:47.827Z,25.55
2022-09-11T11:44:55.237Z,26.11
2022-09-11T11:48:00.239Z,25.83
2022-09-11T11:51:08.566Z,26.39
2022-09-11T11:54:17.431Z,25.90
2022-09-11T11:57:23.212Z,24.87
2022-09-11T12:00:29.424Z,24.19
2022-09-11T12:03:37.635Z,23.61
2022-09-11T12:06:41.526Z,23.33
2022-09-11T12:09:49.387Z,23.12
2022-09-11T12:12:56.468Z,23.04
2022-09-11T12:16:07.360Z,22.87
2022-09-11T12:19:19.715Z,22.76
2022-09-11T12:22:38.938Z,22.74
2022-09-11T12:26:19.377Z,23.26
2022-09-11T12:29:55.422Z,25.07
2022-09-11T12:32:59.899Z,26.03
2022-09-11T12:36:06.447Z,26.68
2022-09-11T12:39:23.995Z,26.20
2022-09-11T12:42:48.359Z,26.13
2022-09-11T12:45:51.705Z,25.84
2022-09-11T12:49:18.368Z,25.07
2022-09-11T12:52:40.092Z,24.59
2022-09-11T12:55:54.229Z,23.88
2022-09-11T12:59:00.841Z,23.48
2022-09-11T13:02:05.951Z,22.92
2022-09-11T13:05:18.430Z,23.18
2022-09-11T13:08:24.801Z,23.09
2022-09-11T13:11:46.405Z,22.86
2022-09-11T13:14:50.273Z,22.65
2022-09-11T13:17:53.598Z,22.07
2022-09-11T13:21:15.320Z,21.91
2022-09-11T13:24:25.710Z,21.97
2022-09-11T13:27:29.653Z,22.02
2022-09-11T13:30:32.845Z,21.82
2022-09-11T13:33:35.759Z,21.82
2022-09-11T13:36:39.924Z,21.80
2022-09-11T13:39:44.086Z,22.39
2022-09-11T13:42:48.792Z,23.14
2022-09-11T13:46:10.023Z,23.00
2022-09-11T13:49:29.674Z,22.80
2022-09-11T13:52:35.573Z,22.49
2022-09-11T13:55:38.302Z,22.33
2022-09-11T13:58:42.527Z,22.52
2022-09-11T14:01:53.895Z,22.48
2022-09-11T14:05:04.882Z,22.78
2022-09-11T14:08:22.812Z,22.89
2022-09-11T14:11:30.130Z,22.81
2022-09-11T14:14:36.785Z,22.82
2022-09-11T14:17:42.030Z,22.91
2022-09-11T14:20:46.680Z,22.59
2022-09-11T14:23:52.814Z,22.49
2022-09-11T14:26:58.190Z,22.27
2022-09-11T14:30:02.043Z,22.28
2022-09-11T14:33:25.608Z,22.22
2022-09-11T14:36:28.164Z,22.34
2022-09-11T14:39:35.211Z,22.30
2022-09-11T14:42:37.890Z,22.09
2022-09-11T14:45:41.713Z,22.04
2022-09-11T14:48:44.200Z,22.06
2022-09-11T14:51:53.220Z,22.04
2022-09-11T14:54:56.679Z,21.87
2022-09-11T14:57:59.183Z,21.83
2022-09-11T15:01:03.089Z,21.78
2022-09-11T15:04:05.611Z,21.10
2022-09-11T15:07:10.615Z,21.35
2022-09-11T15:10:14.020Z,21.29
2022-09-11T15:13:16.508Z,21.39
2022-09-11T15:16:20.632Z,21.62
2022-09-11T15:19:23.160Z,21.45
2022-09-11T15:22:25.671Z,21.52
2022-09-11T15:25:28.195Z,21.42
2022-09-11T15:28:31.293Z,21.45
2022-09-11T15:31:35.185Z,21.43
2022-09-11T15:34:38.578Z,21.42
2022-09-11T15:37:42.074Z,21.33
2022-09-11T15:40:44.575Z,21.35
2022-09-11T15:43:47.101Z,21.33
2022-09-11T15:46:52.746Z,21.37
2022-09-11T15:49:55.242Z,21.43
2022-09-11T15:52:59.536Z,21.32
2022-09-11T15:56:04.663Z,21.25
2022-09-11T15:59:07.222Z,21.26
2022-09-11T16:02:11.777Z,21.06
2022-09-11T16:05:14.464Z,21.06
2022-09-11T16:08:17.073Z,21.01
2022-09-11T16:11:22.826Z,21.08
2022-09-11T16:14:27.198Z,20.94
2022-09-11T16:17:32.317Z,20.98
2022-09-11T16:20:34.829Z,20.99
2022-09-11T16:23:38.460Z,20.86
2022-09-11T16:26:41.739Z,20.92
2022-09-11T16:30:20.313Z,20.89
2022-09-11T16:33:10.242Z,20.83
2022-09-11T16:36:17.449Z,20.75
2022-09-11T16:39:20.344Z,20.66
2022-09-11T16:42:22.910Z,20.56
2022-09-11T16:45:25.705Z,20.41
2022-09-11T16:48:30.169Z,20.35
2022-09-11T16:51:33.258Z,20.24
2022-09-11T16:54:35.764Z,20.22
2022-09-11T16:57:38.681Z,20.07
2022-09-11T17:00:41.476Z,20.01
2022-09-11T17:03:47.123Z,19.92
2022-09-11T17:06:49.637Z,19.78
2022-09-11T17:09:52.146Z,19.74
2022-09-11T17:12:55.507Z,19.72
2022-09-11T17:16:02.796Z,19.64
2022-09-11T17:19:07.372Z,19.58
2022-09-11T17:22:10.255Z,19.51
2022-09-11T17:25:12.769Z,19.41
2022-09-11T17:28:15.255Z,19.37
2022-09-11T17:31:19.719Z,19.31
2022-09-11T17:34:23.565Z,19.29
2022-09-11T17:37:26.877Z,19.17
2022-09-11T17:40:29.380Z,19.07
2022-09-11T17:43:33.160Z,19.04
2022-09-11T17:46:36.184Z,19.02
2022-09-11T17:49:40.022Z,18.89
2022-09-11T17:52:42.502Z,18.81
2022-09-11T17:55:46.252Z,18.78
2022-09-11T17:58:50.659Z,18.70
2022-09-11T18:01:53.305Z,18.57
2022-09-11T18:04:57.187Z,18.51
2022-09-11T18:08:00.257Z,18.45
2022-09-11T18:11:03.029Z,18.34
2022-09-11T18:14:06.307Z,18.32
2022-09-11T18:17:09.073Z,18.35
2022-09-11T18:20:12.906Z,18.31
2022-09-11T18:23:16.600Z,18.21
2022-09-11T18:26:21.920Z,18.24
2022-09-11T18:29:24.472Z,18.04
2022-09-11T18:32:26.945Z,18.03
2022-09-11T18:35:31.188Z,18.03
2022-09-11T18:38:33.674Z,17.94
2022-09-11T18:41:36.704Z,17.92
2022-09-11T18:44:39.223Z,18.05
2022-09-11T18:47:42.539Z,18.04
2022-09-11T18:50:46.380Z,18.03
2022-09-11T18:53:51.877Z,18.07
2022-09-11T18:56:54.418Z,18.11
2022-09-11T18:59:56.921Z,18.04
2022-09-11T19:03:00.198Z,18.01
2022-09-11T19:06:06.545Z,18.04
2022-09-11T19:09:12.557Z,17.99
2022-09-11T19:12:16.303Z,17.97
2022-09-11T19:15:19.211Z,17.99
2022-09-11T19:18:22.207Z,17.99
2022-09-11T19:21:26.422Z,18.02
2022-09-11T19:24:30.029Z,17.93
2022-09-11T19:27:32.593Z,17.89
2022-09-11T19:30:35.245Z,17.77
2022-09-11T19:33:39.464Z,17.64
2022-09-11T19:36:43.395Z,17.62
2022-09-11T19:39:45.979Z,17.55
2022-09-11T19:42:48.572Z,17.50
2022-09-11T19:45:51.235Z,17.47
2022-09-11T19:48:56.722Z,17.50
2022-09-11T19:52:01.557Z,17.58
2022-09-11T19:55:04.100Z,17.42
2022-09-11T19:58:06.599Z,17.32
2022-09-11T20:01:11.359Z,17.41
2022-09-11T20:04:15.675Z,17.35
2022-09-11T20:07:19.534Z,17.41
2022-09-11T20:10:23.689Z,17.34
2022-09-11T20:13:26.181Z,17.30
2022-09-11T20:16:29.168Z,17.30
2022-09-11T20:19:31.700Z,17.32
2022-09-11T20:22:35.513Z,17.29
2022-09-11T20:25:38.191Z,17.20
2022-09-11T20:28:41.223Z,17.24
2022-09-11T20:31:48.835Z,17.21
2022-09-11T20:34:51.928Z,17.28
2022-09-11T20:37:55.885Z,17.27
2022-09-11T20:41:00.508Z,17.28
2022-09-11T20:44:05.075Z,17.33
2022-09-11T20:47:09.331Z,17.31
2022-09-11T20:50:13.302Z,17.32
2022-09-11T20:53:17.440Z,17.36
2022-09-11T20:56:23.382Z,17.37
2022-09-11T20:59:26.183Z,17.40
2022-09-11T21:02:28.960Z,17.31
2022-09-11T21:05:31.717Z,17.24
2022-09-11T21:08:36.171Z,17.15
2022-09-11T21:11:40.857Z,17.02
2022-09-11T21:14:45.604Z,17.13
2022-09-11T21:17:49.669Z,17.09
2022-09-11T21:20:55.772Z,17.03
2022-09-11T21:24:02.187Z,16.91
2022-09-11T21:27:05.079Z,16.92
2022-09-11T21:30:08.825Z,16.91
2022-09-11T21:33:11.494Z,16.84
2022-09-11T21:36:13.994Z,16.76
2022-09-11T21:39:17.896Z,16.80
2022-09-11T21:42:20.394Z,16.84
2022-09-11T21:45:22.908Z,16.79
2022-09-11T21:48:25.454Z,16.70
2022-09-11T21:51:28.679Z,16.81
2022-09-11T21:54:32.502Z,16.81
2022-09-11T21:57:35.023Z,16.64
2022-09-11T22:00:42.700Z,16.62
2022-09-11T22:03:45.933Z,16.52
2022-09-11T22:06:48.527Z,16.44
2022-09-11T22:09:53.113Z,16.59
2022-09-11T22:12:55.582Z,16.58
2022-09-11T22:16:00.236Z,16.53
2022-09-11T22:19:02.800Z,16.26
2022-09-11T22:22:06.611Z,16.27
2022-09-11T22:25:11.124Z,16.29
2022-09-11T22:28:13.649Z,16.26
2022-09-11T22:31:18.136Z,16.21
2022-09-11T22:34:20.703Z,16.08
2022-09-11T22:37:23.516Z,16.07
2022-09-11T22:40:27.353Z,16.19
2022-09-11T22:43:29.945Z,16.16
2022-09-11T22:46:32.457Z,16.11
2022-09-11T22:49:34.952Z,16.00
2022-09-11T22:52:38.320Z,15.93
2022-09-11T22:55:45.209Z,15.85
2022-09-11T22:58:47.700Z,15.92
2022-09-11T23:01:50.258Z,15.71
2022-09-11T23:05:06.749Z,15.72
2022-09-11T23:08:09.243Z,15.72
2022-09-11T23:11:15.167Z,15.80
2022-09-11T23:14:17.654Z,15.72
2022-09-11T23:17:20.167Z,15.66
2022-09-11T23:20:22.994Z,15.59
2022-09-11T23:23:26.584Z,15.54
2022-09-11T23:26:31.192Z,15.43
2022-09-11T23:29:33.765Z,15.48
2022-09-11T23:32:41.146Z,15.43
2022-09-11T23:35:44.392Z,15.59
2022-09-11T23:38:48.482Z,15.53
2022-09-11T23:41:52.352Z,15.33
2022-09-11T23:44:55.176Z,15.26
2022-09-11T23:47:57.664Z,15.45
2022-09-11T23:51:00.996Z,15.46
2022-09-11T23:54:03.547Z,15.39
2022-09-11T23:57:07.941Z,15.27
